FYRU

Rundu Airport

Rundu, Namibia
TAF FYRU 210800Z 2109/2118 00000KT CAVOK BECMG 2109/2111 06007KT
Issued Valid From Valid To
Jun-21 @ 08:00 UTC
(2 hours ago)
Jun-21 @ 09:00 UTC
(an hour ago)
Jun-21 @ 18:00 UTC
(in 8 hours)
Jun-21 @ 09:00 to Jun-21 @ 18:00
TAF FYRU 210800Z 2109/2118 00000KT CAVOK
Visibility Clouds Conditions
10,000+ meters
  • No significant clouds
Becoming Jun-21 @ 09:00 to Jun-21 @ 18:00
BECMG 2109/2111 06007KT
Wind Visibility Clouds Conditions
60° at 7 knots 10,000+ meters
  • No significant clouds
TAF FYRU 210800Z 2109/2118 00000KT CAVOK BECMG 2109/2111 06007KT
Issued Jun-21 @ 08:00 UTC
(2 hours ago)
Valid From Jun-21 @ 09:00 UTC
(an hour ago)
Valid To Jun-21 @ 18:00 UTC
(in 8 hours)
Jun-21 @ 09:00 - Jun-21 @ 18:00
Clouds
  • No significant clouds
Conditions
Becoming Jun-21 @ 09:00 - Jun-21 @ 18:00
Wind Visibility
60° at 7 knots 10,000+ meters
Clouds
  • No significant clouds
Conditions